Nearby METAR Reports

 

KCOS - Colorado Springs, Colorado, USA
Distance from station: S 6mi, 9km
Updated: 07/19/2019 5:54pm
Few Clouds
Few Clouds
 Wind from ESE
Wind: ESE 13 mph , 20 km/h
Temperature: 95°F , 35°C
Dew Point: 32°F , 0°C
Humidity: 11%
Barometer: 29.96 inHg , 1014.6 hPa
Clouds: Few Clouds
Visibility: 10 miles , 16 km
Cloud details: Few Clouds 12000 ft
Few Clouds 16000 ft
2019/07/19 23:54 KCOS 192354Z 12011KT 10SM FEW120 FEW160 35/00 A2996 RMK AO2 SLP027 PK WND 13026/2311 T03500000 10361 20333 56011
KAFF - Usaf Academy/Cos, Colorado, USA
Distance from station: NW 7mi, 12km
Updated: 07/19/2019 5:58pm
Clear
Clear
 Wind from SE
Wind: SE 14 mph , 22 km/h
Temperature: 93°F , 34°C
Dew Point: 28°F , -2°C
Humidity: 10%
Barometer: 29.98 inHg , 1015.2 hPa
Clouds: Clear
Visibility: 10 miles , 16 km
2019/07/19 23:58 KAFF 192358Z AUTO 14012KT 10SM CLR 34/M02 A2998 RMK AO2 SLP046 T03391020 10353 20328 57009
 
KFLY - Co Spngs Meadow, Colorado, USA
Distance from station: ENE 8mi, 13km
Updated: 07/19/2019 6:35pm
Clear
Clear
 Wind from SE
Wind: SE 14 mph , 22 km/h, Gust: 22 mph , 35 km/h
Temperature: 91°F , 33°C
Dew Point: 27°F , -3°C
Humidity: 10%
Barometer: 30.05 inHg , 1017.6 hPa
Clouds: Clear
Visibility: 10 miles , 16 km
2019/07/20 00:35 KFLY 200035Z AUTO 13012G19KT 10SM CLR 33/M03 A3005 RMK AO2 T03301029
KFCS - Fort Carson, Colorado, USA
Distance from station: S 17mi, 27km
Updated: 07/19/2019 5:58pm
Clear
Clear
 Wind from ESE
Wind: ESE 13 mph , 20 km/h, Gust: 22 mph , 35 km/h
Temperature: 97°F , 36°C
Dew Point: 28°F , -2°C
Humidity: 9%
Barometer: 29.92 inHg , 1013.2 hPa
Clouds: Clear
Visibility: 10 miles , 16 km
2019/07/19 23:58 KFCS 192358Z AUTO 12011G19KT 10SM CLR 36/M02 A2992 RMK AO2 SLP052 T03621017 10369 20349 57013 $
 
KMNH - Monument/Elbert, Colorado, USA
Distance from station: N 22mi, 35km
Updated: 07/19/2019 6:30pm
Clear
Clear
 Wind from ESE
Wind: ESE 10 mph , 17 km/h
Temperature: 86°F , 30°C
Dew Point: 36°F , 2°C
Humidity: 17%
Barometer: 30.07 inHg , 1018.3 hPa
Clouds: Clear
Visibility: 10 miles , 16 km
2019/07/20 00:30 KMNH 200030Z AUTO 12009KT 10SM CLR 30/02 A3007 RMK AO2
K1V6 - Canon City, Colorado, USA
Distance from station: SSW 39mi, 62km
Updated: 07/19/2019 6:25pm
Clear
Clear
 Wind from SE
Wind: SE 10 mph , 17 km/h
Temperature: 99°F , 37°C
Dew Point: 36°F , 2°C
Humidity: 11%
Barometer: 29.86 inHg , 1011.2 hPa
Clouds: Clear
Visibility: 10 miles , 16 km
2019/07/20 00:25 K1V6 200025Z AUTO 13009KT 10SM CLR 37/02 A2986 RMK AO2
 
KPUB - Pueblo, Colorado, USA
Distance from station: SSE 44mi, 71km
Updated: 07/19/2019 5:53pm
Clear
Clear
 Wind from E
Wind: E 5 mph , 7 km/h
Temperature: 102°F , 39°C
Dew Point: 34°F , 1°C
Humidity: 9%
Barometer: 29.80 inHg , 1009.1 hPa
Clouds: Clear
Visibility: 10 miles , 16 km
2019/07/19 23:53 KPUB 192353Z AUTO 10004KT 10SM CLR 39/01 A2980 RMK AO2 SLP011 T03940006 10406 20372 56016
KAPA - Denver/Arapahoe, Colorado, USA
Distance from station: N 47mi, 75km
Updated: 07/19/2019 5:53pm
Few Clouds
Few Clouds
 Wind from E
Wind: E 6 mph , 9 km/h
Temperature: 99°F , 37°C
Dew Point: 36°F , 2°C
Humidity: 11%
Barometer: 29.93 inHg , 1013.5 hPa
Clouds: Few Clouds
Visibility: 10 miles , 16 km
Cloud details: Few Clouds 10000 ft
Few Clouds 22000 ft
2019/07/19 23:53 KAPA 192353Z 09005KT 10SM FEW100 FEW220 37/02 A2993 RMK AO2 SLP045 T03670017 10378 20339 56010